Time;durP1;ratioP1;P1;durP2;ratioP2;P2;SDS_P1;SDS_P2;PMS_P1;PMS_P2;Temp;Humidity;BMP_temperature;BMP_pressure;BME280_temperature;BME280_humidity;BME280_pressure;Samples;Min_cycle;Max_cycle;Signal;HPM_P1;HPM_P2
2022/05/11 00:01:11;;;;;;;9.80;7.65;;;;;;;19.97;59.33;101540.25;5064371;28;20109;-84
2022/05/11 00:03:39;;;;;;;14.15;8.02;;;;;;;20.04;59.37;101542.06;5063626;28;20159;-84
2022/05/11 00:06:06;;;;;;;15.25;8.65;;;;;;;20.09;59.46;101560.41;5063829;28;20437;-83
2022/05/11 00:08:33;;;;;;;11.48;7.60;;;;;;;19.97;59.44;101540.25;5063945;28;20076;-84
2022/05/11 00:11:00;;;;;;;13.88;8.57;;;;;;;19.98;59.75;101541.94;5063823;28;20102;-84
2022/05/11 00:13:28;;;;;;;9.20;8.35;;;;;;;20.19;59.82;101566.41;5064807;28;20091;-84
2022/05/11 00:15:55;;;;;;;11.85;9.13;;;;;;;19.82;59.94;101503.25;5063568;28;20468;-84
2022/05/11 00:18:21;;;;;;;13.50;8.38;;;;;;;20.01;59.99;101539.72;5080692;28;20129;-83
2022/05/11 00:20:48;;;;;;;10.88;9.13;;;;;;;20.05;60.09;101554.53;5064942;28;20139;-85
2022/05/11 00:23:15;;;;;;;11.90;9.52;;;;;;;19.97;59.89;101534.84;5063907;28;20056;-84
2022/05/11 00:25:45;;;;;;;12.35;8.18;;;;;;;19.99;59.67;101533.66;5065450;28;20134;-84
2022/05/11 00:28:12;;;;;;;8.88;7.97;;;;;;;20.11;59.47;101561.06;5067238;28;20486;-84
2022/05/11 00:30:40;;;;;;;11.93;7.35;;;;;;;19.88;59.60;101519.72;5067943;28;20074;-83
2022/05/11 00:33:07;;;;;;;12.60;7.43;;;;;;;20.04;59.05;101549.31;5067666;28;20051;-83
2022/05/11 00:35:34;;;;;;;12.73;7.47;;;;;;;19.26;59.26;101424.34;5067770;28;20247;-83
2022/05/11 00:38:05;;;;;;;11.30;8.25;;;;;;;20.05;59.52;101564.47;5068085;28;20534;-85
2022/05/11 00:40:38;;;;;;;13.40;8.38;;;;;;;20.02;59.91;101565.63;5067237;28;20072;-84
2022/05/11 00:43:05;;;;;;;13.30;8.00;;;;;;;19.92;59.85;101548.00;5066963;28;20444;-83
2022/05/11 00:45:31;;;;;;;10.32;7.63;;;;;;;19.93;59.96;101555.06;5068060;28;20193;-84
2022/05/11 00:49:33;;;;;;;10.40;8.07;;;;;;;19.95;59.97;101561.13;5068890;28;20052;-84
2022/05/11 00:50:51;;;;;;;11.43;7.65;;;;;;;19.96;60.04;101549.34;5068204;28;20052;-85
2022/05/11 00:53:18;;;;;;;9.80;7.88;;;;;;;19.75;60.18;101522.97;5068428;28;20126;-82
2022/05/11 00:55:55;;;;;;;14.90;7.95;;;;;;;19.95;59.89;101558.44;5067013;28;20056;-83
2022/05/11 00:58:31;;;;;;;9.20;7.40;;;;;;;19.84;59.51;101544.34;5066987;28;20502;-83
2022/05/11 01:00:58;;;;;;;14.80;8.30;;;;;;;18.90;59.48;101395.16;5066962;28;20131;-84
2022/05/11 01:03:41;;;;;;;7.65;6.95;;;;;;;19.98;59.29;101560.81;5066671;28;20526;-83
2022/05/11 01:06:10;;;;;;;16.25;8.10;;;;;;;19.97;58.65;101561.78;5068808;28;20471;-83
2022/05/11 01:08:38;;;;;;;13.77;7.22;;;;;;;19.67;59.07;101514.91;5066603;28;20491;-84
2022/05/11 01:11:07;;;;;;;15.38;7.53;;;;;;;19.87;59.21;101553.91;5066494;28;20441;-84
2022/05/11 01:13:37;;;;;;;11.95;7.70;;;;;;;19.89;59.15;101551.91;5066523;28;20044;-84
2022/05/11 01:16:04;;;;;;;10.30;8.18;;;;;;;19.84;57.66;101536.25;5066811;28;20049;-83
2022/05/11 01:18:31;;;;;;;14.63;7.32;;;;;;;19.40;58.61;101460.47;5066892;28;20052;-84
2022/05/11 01:21:02;;;;;;;9.25;7.10;;;;;;;19.94;58.26;101556.75;5066787;28;20206;-84
2022/05/11 01:23:39;;;;;;;;;;;;;;;19.96;57.94;101554.75;5066540;28;20049;-84
2022/05/11 01:26:05;;;;;;;10.52;7.72;;;;;;;19.87;58.51;101558.47;5083310;28;19920;-83
2022/05/11 01:28:33;;;;;;;9.35;7.53;;;;;;;19.97;58.17;101562.63;5067635;28;20096;-83
2022/05/11 01:31:04;;;;;;;10.63;7.32;;;;;;;19.91;58.64;101554.44;5066412;28;20539;-82
2022/05/11 01:33:31;;;;;;;8.60;7.75;;;;;;;19.85;58.36;101558.63;5066495;28;20048;-82
2022/05/11 01:36:23;;;;;;;8.48;6.90;;;;;;;19.58;58.39;101495.25;5067747;28;20091;-82
2022/05/11 01:38:56;;;;;;;11.23;7.72;;;;;;;19.90;58.24;101558.94;5083358;28;20057;-82
2022/05/11 01:41:33;;;;;;;12.60;7.72;;;;;;;19.93;58.12;101565.84;5083189;28;20272;-81
2022/05/11 01:44:04;;;;;;;10.85;7.68;;;;;;;19.80;57.49;101548.38;5067523;28;20060;-81
2022/05/11 01:46:32;;;;;;;9.87;7.37;;;;;;;19.65;57.85;101526.69;5067767;28;20174;-82
2022/05/11 01:48:59;;;;;;;7.70;6.80;;;;;;;19.74;57.60;101546.41;5066542;28;20048;-82
2022/05/11 01:51:25;;;;;;;9.00;6.75;;;;;;;19.76;57.92;101560.53;5066037;28;20053;-82
2022/05/11 01:53:53;;;;;;;8.02;6.55;;;;;;;19.46;57.87;101520.88;5066300;28;20054;-83
2022/05/11 01:56:22;;;;;;;11.27;6.75;;;;;;;19.74;57.49;101567.13;5066010;28;20090;-82
2022/05/11 01:58:50;;;;;;;9.02;6.85;;;;;;;19.62;57.45;101558.53;5066165;28;20494;-82
2022/05/11 02:01:20;;;;;;;9.73;6.85;;;;;;;19.70;57.75;101571.16;5068118;28;20052;-82
2022/05/11 02:03:47;;;;;;;7.70;6.50;;;;;;;19.53;57.44;101546.09;5081198;28;20048;-82
2022/05/11 02:09:00;;;;;;;10.02;6.38;;;;;;;19.46;57.28;101547.78;5068866;28;20462;-83
2022/05/11 02:11:26;;;;;;;10.00;6.57;;;;;;;18.62;56.90;101409.97;5066019;28;20496;-82
2022/05/11 02:13:53;;;;;;;8.88;6.90;;;;;;;19.52;57.33;101542.56;5066574;28;20110;-81
2022/05/11 02:16:20;;;;;;;8.43;6.85;;;;;;;19.59;57.36;101569.66;5066247;28;20444;-82
2022/05/11 02:18:47;;;;;;;7.88;6.88;;;;;;;19.18;57.99;101502.44;5082480;28;20040;-81
2022/05/11 02:21:13;;;;;;;11.48;7.07;;;;;;;19.26;57.85;101513.16;5065853;28;20497;-81
2022/05/11 02:23:40;;;;;;;12.25;6.38;;;;;;;19.55;58.16;101568.31;5065443;28;20056;-81
2022/05/11 02:26:11;;;;;;;9.70;7.50;;;;;;;19.46;57.92;101561.25;5066183;28;20068;-81
2022/05/11 02:28:38;;;;;;;11.80;7.43;;;;;;;19.22;57.73;101536.03;5066864;28;20456;-81
2022/05/11 02:31:05;;;;;;;16.00;7.32;;;;;;;19.05;57.73;101507.47;5082438;28;20118;-80
2022/05/11 02:33:32;;;;;;;16.33;7.85;;;;;;;19.38;58.28;101573.72;5082073;28;20044;-81
2022/05/11 02:35:59;;;;;;;9.95;7.65;;;;;;;19.28;58.09;101535.38;5065607;28;20053;-81
2022/05/11 02:38:33;;;;;;;9.02;6.82;;;;;;;19.08;57.63;101499.06;5065601;28;20113;-82
2022/05/11 02:41:01;;;;;;;8.15;7.20;;;;;;;19.49;57.67;101568.97;5065068;28;20486;-81
2022/05/11 02:43:28;;;;;;;9.68;6.85;;;;;;;19.46;57.98;101574.72;5065354;28;20056;-82
2022/05/11 02:45:55;;;;;;;12.40;7.13;;;;;;;19.45;57.45;101568.50;5067384;28;20539;-82
2022/05/11 02:48:24;;;;;;;10.68;7.07;;;;;;;18.93;57.71;101483.63;5082796;28;20151;-82
2022/05/11 02:50:54;;;;;;;9.27;6.20;;;;;;;19.12;57.42;101519.25;5066978;28;20482;-82
2022/05/11 02:53:23;;;;;;;9.02;6.47;;;;;;;19.32;57.53;101552.88;5070406;28;20052;-82
2022/05/11 02:55:52;;;;;;;12.85;7.15;;;;;;;19.35;57.36;101571.38;5070840;28;20056;-82
2022/05/11 02:58:24;;;;;;;12.85;6.97;;;;;;;18.95;57.76;101496.91;5068768;28;20101;-82
2022/05/11 03:00:51;;;;;;;;;;;;;;;19.30;57.30;101565.66;5066115;28;20048;-82
2022/05/11 03:03:20;;;;;;;13.20;6.47;;;;;;;19.28;57.56;101550.69;5065278;28;20216;-82
2022/05/11 03:05:48;;;;;;;11.60;7.18;;;;;;;19.24;58.03;101547.50;5082002;28;20356;-82
2022/05/11 03:08:18;;;;;;;7.55;6.80;;;;;;;18.69;58.12;101465.63;5066462;28;20056;-81
2022/05/11 03:10:47;;;;;;;15.57;7.05;;;;;;;18.95;57.70;101513.88;5064796;28;20056;-82
2022/05/11 03:13:14;;;;;;;10.80;7.53;;;;;;;19.30;57.57;101559.44;5065350;28;20048;-82
2022/05/11 03:15:42;;;;;;;10.80;7.25;;;;;;;18.79;57.96;101487.00;5064653;28;20588;-82
2022/05/11 03:18:09;;;;;;;8.70;6.53;;;;;;;19.22;57.88;101552.19;5064919;28;20056;-82
2022/05/11 03:20:36;;;;;;;8.65;6.13;;;;;;;19.34;57.31;101576.91;5066294;28;20106;-82
2022/05/11 03:23:03;;;;;;;15.50;6.47;;;;;;;19.15;57.11;101537.72;5064583;28;20107;-81
2022/05/11 03:25:30;;;;;;;9.98;6.07;;;;;;;19.02;56.81;101527.50;5065792;28;20091;-82
2022/05/11 03:27:57;;;;;;;7.90;6.55;;;;;;;19.17;56.75;101554.56;5064827;28;20052;-81
2022/05/11 03:30:24;;;;;;;10.60;7.20;;;;;;;19.27;56.44;101559.75;5081403;28;20072;-81
2022/05/11 03:35:37;;;;;;;8.35;6.15;;;;;;;19.09;56.60;101530.34;5066201;28;20127;-80
2022/05/11 03:38:04;;;;;;;6.95;5.65;;;;;;;19.18;56.52;101549.00;5065045;28;20056;-80
2022/05/11 03:40:32;;;;;;;10.15;7.55;;;;;;;19.16;55.99;101548.34;5066439;28;20080;-82
2022/05/11 03:43:01;;;;;;;20.38;6.88;;;;;;;19.35;55.76;101568.69;5081459;28;20068;-82
2022/05/11 03:45:28;;;;;;;12.20;7.07;;;;;;;19.30;55.95;101560.28;5064533;28;20060;-82
2022/05/11 03:47:55;;;;;;;10.68;6.60;;;;;;;19.39;55.79;101578.09;5081037;28;20044;-82
2022/05/11 03:50:23;;;;;;;12.40;7.00;;;;;;;19.24;56.01;101555.56;5064619;28;20233;-83
2022/05/11 03:52:51;;;;;;;11.52;6.85;;;;;;;19.28;55.92;101562.28;5063840;28;20052;-82
2022/05/11 03:55:20;;;;;;;7.10;6.38;;;;;;;19.37;56.18;101572.06;5065947;28;20080;-82
2022/05/11 03:57:47;;;;;;;12.88;6.95;;;;;;;19.35;56.43;101574.06;5080815;28;20040;-81
2022/05/11 04:00:21;;;;;;;11.10;6.20;;;;;;;19.18;56.13;101545.50;5064428;28;20276;-83
2022/05/11 04:02:49;;;;;;;9.63;6.80;;;;;;;19.26;56.00;101556.25;5068597;28;20182;-83
2022/05/11 04:05:17;;;;;;;8.15;6.72;;;;;;;19.17;56.23;101541.94;5068205;28;20064;-83
2022/05/11 04:07:44;;;;;;;14.15;6.93;;;;;;;19.19;55.96;101539.09;5069490;28;20063;-83
2022/05/11 04:10:13;;;;;;;8.20;6.43;;;;;;;19.29;56.20;101568.50;5068173;28;20143;-82
2022/05/11 04:12:40;;;;;;;7.38;6.18;;;;;;;19.30;56.29;101576.44;5069563;28;20106;-82
2022/05/11 04:15:08;;;;;;;7.50;6.30;;;;;;;19.16;56.64;101552.88;5068173;28;20056;-82
2022/05/11 04:17:36;;;;;;;8.90;6.65;;;;;;;19.22;56.91;101581.81;5067868;28;20040;-82
2022/05/11 04:20:05;;;;;;;13.23;6.70;;;;;;;19.06;57.29;101557.63;5069062;28;20044;-81
2022/05/11 04:22:32;;;;;;;14.38;7.32;;;;;;;18.94;57.42;101544.50;5067652;28;20048;-80
2022/05/11 04:24:59;;;;;;;8.38;7.20;;;;;;;19.05;57.28;101558.59;5068601;28;20078;-81
2022/05/11 04:27:25;;;;;;;11.40;6.57;;;;;;;18.86;57.76;101531.06;5066046;28;20130;-80
2022/05/11 04:29:52;;;;;;;8.15;6.80;;;;;;;18.56;57.84;101490.31;5066665;28;20052;-81
2022/05/11 04:32:19;;;;;;;20.83;7.07;;;;;;;18.60;57.31;101495.38;5066142;28;20529;-81
2022/05/11 04:34:46;;;;;;;8.18;6.70;;;;;;;18.98;57.20;101545.84;5066321;28;20048;-82
2022/05/11 04:37:14;;;;;;;10.13;6.93;;;;;;;18.97;57.16;101548.69;5067183;28;20052;-81
2022/05/11 04:39:41;;;;;;;12.77;6.90;;;;;;;19.29;56.11;101585.50;5066621;28;20445;-81
2022/05/11 04:42:09;;;;;;;10.18;6.95;;;;;;;18.99;56.11;101536.75;5067954;28;20084;-80
2022/05/11 04:44:36;;;;;;;9.63;6.22;;;;;;;19.09;55.79;101541.97;5067854;28;20052;-81
2022/05/11 04:47:11;;;;;;;9.85;6.82;;;;;;;19.29;55.70;101558.59;5067811;28;20110;-81
2022/05/11 04:49:39;;;;;;;10.90;7.30;;;;;;;19.41;55.90;101589.53;5066282;28;20052;-82
2022/05/11 04:52:15;;;;;;;8.82;6.97;;;;;;;19.38;55.89;101586.34;5066588;28;20080;-82
2022/05/11 04:54:50;;;;;;;8.90;6.05;;;;;;;19.49;55.38;101588.69;5066023;28;20048;-82
2022/05/11 04:57:18;;;;;;;11.25;6.32;;;;;;;19.58;55.83;101606.50;5066408;28;20055;-82
2022/05/11 04:59:45;;;;;;;6.95;6.07;;;;;;;19.52;55.77;101587.50;5050443;28;20052;-81
2022/05/11 05:02:22;;;;;;;8.70;6.68;;;;;;;18.90;55.18;101478.56;5071094;28;20048;-82
2022/05/11 05:04:50;;;;;;;14.60;7.30;;;;;;;19.26;55.29;101542.78;5071803;28;20056;-81
2022/05/11 05:07:18;;;;;;;8.90;6.72;;;;;;;19.78;55.75;101617.78;5069986;28;20131;-81
2022/05/11 05:09:45;;;;;;;16.65;6.80;;;;;;;19.65;55.54;101596.72;5067792;28;20044;-81
2022/05/11 05:12:13;;;;;;;6.88;6.00;;;;;;;19.82;55.04;101608.31;5065908;28;20055;-81
2022/05/11 05:14:42;;;;;;;11.88;6.10;;;;;;;19.97;54.37;101627.31;5066564;28;20064;-81
2022/05/11 05:17:15;;;;;;;9.13;6.65;;;;;;;19.94;55.24;101632.22;5080000;28;20105;-81
2022/05/11 05:19:44;;;;;;;11.73;6.53;;;;;;;19.99;55.26;101632.53;5086364;28;20127;-82
2022/05/11 05:22:11;;;;;;;11.13;7.32;;;;;;;19.76;55.23;101587.47;5086058;28;20059;-81
2022/05/11 05:24:41;;;;;;;13.05;7.18;;;;;;;20.06;55.36;101625.44;5085723;28;20139;-82
2022/05/11 05:27:08;;;;;;;7.80;6.65;;;;;;;19.30;55.09;101501.06;5085711;28;20047;-82
2022/05/11 05:32:20;;;;;;;8.60;7.15;;;;;;;20.33;54.30;101644.88;5087670;28;20060;-82
2022/05/11 05:34:47;;;;;;;10.88;7.15;;;;;;;20.11;53.82;101609.59;5086262;28;20044;-82
2022/05/11 05:37:16;;;;;;;11.90;6.95;;;;;;;19.83;54.68;101558.84;5086979;28;20562;-82
2022/05/11 05:39:44;;;;;;;8.35;6.40;;;;;;;20.21;54.34;101618.28;5084766;28;20514;-83
2022/05/11 05:42:23;;;;;;;12.07;7.13;;;;;;;20.41;54.31;101645.69;5085242;28;20059;-83
2022/05/11 05:44:50;;;;;;;10.35;7.15;;;;;;;19.25;54.46;101454.09;5085280;28;20063;-82
2022/05/11 05:47:17;;;;;;;8.63;6.40;;;;;;;20.59;53.88;101664.34;5085276;28;20105;-82
2022/05/11 05:49:45;;;;;;;9.32;7.32;;;;;;;20.62;53.50;101658.59;5084967;28;20481;-82
2022/05/11 05:52:17;;;;;;;9.75;6.82;;;;;;;20.02;53.64;101567.50;5072851;28;20091;-81
2022/05/11 05:54:45;;;;;;;14.73;7.57;;;;;;;20.60;53.95;101657.09;5082704;28;20261;-81
2022/05/11 05:57:13;;;;;;;8.70;6.38;;;;;;;20.64;54.66;101651.16;5067846;28;20394;-83
2022/05/11 05:59:40;;;;;;;9.73;6.82;;;;;;;20.40;54.07;101592.75;5092590;28;20273;-82
2022/05/11 06:02:12;;;;;;;6.20;5.60;;;;;;;20.79;54.17;101651.22;5064274;28;20093;-81
2022/05/11 06:04:46;;;;;;;13.93;7.25;;;;;;;20.93;54.69;101676.63;5046940;28;20529;-83
2022/05/11 06:07:13;;;;;;;12.20;6.70;;;;;;;20.89;54.58;101661.81;5057195;28;20041;-82
2022/05/11 06:09:40;;;;;;;7.57;6.85;;;;;;;20.88;54.17;101652.03;5058071;28;20142;-81
2022/05/11 06:12:09;;;;;;;12.55;7.65;;;;;;;21.06;54.32;101671.47;5058236;28;20455;-82
2022/05/11 06:14:36;;;;;;;10.27;7.05;;;;;;;21.13;54.58;101677.81;5053252;28;20056;-81
2022/05/11 06:17:03;;;;;;;9.52;6.88;;;;;;;21.32;52.70;101671.09;5057308;28;20523;-81
2022/05/11 06:19:30;;;;;;;9.88;6.55;;;;;;;21.46;51.50;101676.78;5064256;28;20448;-83
2022/05/11 06:21:57;;;;;;;11.05;6.55;;;;;;;21.51;51.67;101685.16;5064386;28;20055;-81
2022/05/11 06:24:30;;;;;;;13.55;7.22;;;;;;;21.58;51.51;101690.66;5063486;28;20044;-82
2022/05/11 06:26:57;;;;;;;12.75;6.95;;;;;;;21.39;52.27;101662.28;5064854;28;20090;-80
2022/05/11 06:29:31;;;;;;;11.50;6.93;;;;;;;21.31;52.63;101655.06;5064145;28;20067;-81
2022/05/11 06:31:59;;;;;;;8.88;6.47;;;;;;;21.51;52.89;101691.41;5064156;28;20049;-80
2022/05/11 06:34:26;;;;;;;9.43;6.82;;;;;;;21.55;53.29;101690.03;5064360;28;20057;-83
2022/05/11 06:36:52;;;;;;;10.95;7.35;;;;;;;21.59;53.37;101684.25;5064323;28;20064;-83
2022/05/11 06:39:21;;;;;;;11.90;6.30;;;;;;;21.62;52.76;101698.22;5071397;28;20064;-81
2022/05/11 06:41:51;;;;;;;9.27;7.20;;;;;;;21.73;52.21;101694.25;5069356;28;20494;-81
2022/05/11 06:44:25;;;;;;;10.07;6.70;;;;;;;21.79;52.57;101696.22;5068611;28;20605;-81
2022/05/11 06:46:52;;;;;;;14.18;6.45;;;;;;;21.60;52.78;101661.59;5064599;28;20044;-84
2022/05/11 06:49:19;;;;;;;13.70;6.97;;;;;;;21.32;52.67;101608.16;5064694;28;20072;-80
2022/05/11 06:51:46;;;;;;;16.02;7.47;;;;;;;21.88;52.73;101700.53;5063857;28;20048;-82
2022/05/11 06:59:43;;;;;;;20.85;7.28;;;;;;;22.14;53.27;101702.78;5065509;28;20410;-84
2022/05/11 07:02:10;;;;;;;12.60;7.65;;;;;;;22.19;53.24;101708.47;5063848;28;20141;-82
2022/05/11 07:04:37;;;;;;;17.17;7.25;;;;;;;22.19;53.16;101696.81;5065399;28;20318;-82
2022/05/11 07:07:06;;;;;;;10.35;7.72;;;;;;;22.27;52.57;101707.56;5080668;28;20110;-82
2022/05/11 07:09:34;;;;;;;11.88;6.93;;;;;;;22.33;52.53;101705.97;5065501;28;20509;-82
2022/05/11 07:14:53;;;;;;;8.90;6.80;;;;;;;21.83;53.00;101608.34;5066735;28;20052;-83
2022/05/11 07:17:25;;;;;;;11.75;7.90;;;;;;;22.47;52.70;101702.41;5082356;28;20114;-83
2022/05/11 07:19:51;;;;;;;15.18;7.20;;;;;;;22.25;51.59;101663.63;5081409;28;20497;-84
2022/05/11 07:22:18;;;;;;;11.00;6.53;;;;;;;22.47;51.33;101697.00;5085158;28;20048;-84
2022/05/11 07:24:45;;;;;;;11.27;6.90;;;;;;;22.52;51.50;101704.56;5083360;28;20097;-84
2022/05/11 07:27:11;;;;;;;16.00;7.15;;;;;;;22.43;52.30;101687.59;5083913;28;20048;-84
2022/05/11 07:29:38;;;;;;;12.98;6.57;;;;;;;22.59;52.08;101708.19;5079765;28;20552;-83
2022/05/11 07:32:06;;;;;;;13.70;6.57;;;;;;;22.63;51.74;101706.78;5062880;28;20052;-83
2022/05/11 07:34:34;;;;;;;11.10;7.53;;;;;;;22.46;52.09;101679.09;5066326;28;20105;-82
2022/05/11 07:37:01;;;;;;;19.42;7.22;;;;;;;22.76;51.57;101706.94;5069970;28;20045;-83
2022/05/11 07:39:28;;;;;;;10.80;6.40;;;;;;;22.70;51.05;101691.47;5071812;28;20106;-84
2022/05/11 07:41:55;;;;;;;22.63;7.40;;;;;;;22.82;50.71;101705.34;5069133;28;20406;-83
2022/05/11 07:44:22;;;;;;;9.05;6.30;;;;;;;22.66;50.02;101690.16;5069131;28;20139;-84
2022/05/11 07:46:54;;;;;;;9.80;6.65;;;;;;;21.66;49.16;101520.38;5047843;28;20089;-83
2022/05/11 07:49:21;;;;;;;11.90;6.68;;;;;;;22.77;50.14;101697.81;5048054;28;20049;-83
2022/05/11 07:51:51;;;;;;;9.88;6.50;;;;;;;22.55;49.23;101656.34;5049954;28;20445;-81
2022/05/11 07:54:21;;;;;;;11.98;7.47;;;;;;;21.54;48.51;101491.13;5084420;28;20049;-81
2022/05/11 08:02:27;;;;;;;10.30;6.35;;;;;;;22.87;49.34;101688.53;5068998;28;20406;-82
2022/05/11 08:05:14;;;;;;;16.85;8.13;;;;;;;22.98;49.13;101698.88;5064115;28;20049;-83
2022/05/11 08:07:44;;;;;;;12.38;6.95;;;;;;;22.73;48.94;101641.53;5049024;28;20052;-84
2022/05/11 08:10:18;;;;;;;7.95;6.18;;;;;;;23.21;48.93;101720.41;5047004;28;20056;-83
2022/05/11 08:12:46;;;;;;;17.17;6.75;;;;;;;23.15;48.38;101684.06;5048845;28;20079;-83
2022/05/11 08:15:15;;;;;;;13.27;6.63;;;;;;;23.11;48.64;101676.50;5048802;28;20045;-83
2022/05/11 08:17:43;;;;;;;16.17;6.57;;;;;;;23.45;47.94;101719.16;5048484;28;20118;-84
2022/05/11 08:20:15;;;;;;;11.95;6.68;;;;;;;23.13;47.65;101653.66;5048983;28;20111;-84
2022/05/11 08:22:45;;;;;;;13.48;6.50;;;;;;;23.14;48.37;101641.78;5047517;28;20057;-83
2022/05/11 08:25:22;;;;;;;16.05;6.57;;;;;;;23.68;49.16;101711.63;5047330;28;20136;-83
2022/05/11 08:27:49;;;;;;;12.00;7.07;;;;;;;23.70;49.36;101713.31;5049357;28;20060;-80
2022/05/11 08:33:23;;;;;;;12.35;7.60;;;;;;;23.87;49.62;101717.44;5048310;28;20110;-83
2022/05/11 08:36:16;;;;;;;9.38;7.43;;;;;;;23.81;49.49;101689.25;5048651;28;20048;-82
2022/05/11 08:38:47;;;;;;;15.77;7.05;;;;;;;23.93;50.04;101713.94;5048382;28;20098;-84
2022/05/11 08:41:41;;;;;;;9.57;7.63;;;;;;;23.85;50.10;101673.41;5047200;28;20087;-83
2022/05/11 08:44:14;;;;;;;12.13;7.55;;;;;;;23.32;49.68;101578.16;5046950;28;20041;-82
2022/05/11 08:46:47;;;;;;;17.15;7.38;;;;;;;23.34;49.33;101559.81;5046276;28;20379;-83
2022/05/11 08:49:22;;;;;;;11.43;7.78;;;;;;;24.29;48.44;101710.19;5046840;28;20106;-83
2022/05/11 08:52:02;;;;;;;16.15;7.65;;;;;;;24.14;48.58;101666.09;5049067;28;20383;-82
2022/05/11 08:54:33;;;;;;;11.63;8.50;;;;;;;24.50;48.60;101704.69;5067081;28;20056;-82
2022/05/11 08:57:01;;;;;;;11.07;7.50;;;;;;;24.17;48.70;101646.69;5068941;28;20056;-83
2022/05/11 08:59:31;;;;;;;14.70;7.03;;;;;;;24.64;48.38;101712.91;5066998;28;20048;-83
2022/05/11 09:02:23;;;;;;;10.77;7.45;;;;;;;24.69;47.49;101710.44;5066395;28;20060;-83
2022/05/11 09:04:52;;;;;;;;;;;;;;;24.81;47.67;101716.94;5067177;28;20056;-83
2022/05/11 09:07:20;;;;;;;9.00;7.97;;;;;;;23.99;47.53;101572.13;5066808;28;20403;-83
2022/05/11 09:09:47;;;;;;;14.65;7.75;;;;;;;24.35;47.55;101613.59;5066436;28;20180;-82
2022/05/11 09:12:16;;;;;;;8.02;7.10;;;;;;;24.71;47.49;101679.31;5066163;28;20361;-82
2022/05/11 09:14:56;;;;;;;10.52;7.55;;;;;;;24.66;47.53;101680.94;5065708;28;20446;-82
2022/05/11 09:17:33;;;;;;;13.70;7.85;;;;;;;25.09;47.79;101713.25;5065692;28;20056;-83
2022/05/11 09:20:01;;;;;;;10.90;7.30;;;;;;;25.06;47.08;101709.06;5067604;28;20057;-83
2022/05/11 09:22:29;;;;;;;15.93;8.35;;;;;;;25.15;46.85;101705.13;5067653;28;20537;-83
2022/05/11 09:25:15;;;;;;;13.27;7.47;;;;;;;25.33;46.33;101712.69;5069321;28;20056;-83
2022/05/11 09:27:42;;;;;;;9.60;7.60;;;;;;;25.34;46.33;101706.22;5070767;28;20114;-83
2022/05/11 09:30:27;;;;;;;11.60;7.63;;;;;;;25.42;46.73;101701.63;5066165;28;20392;-83
2022/05/11 09:33:12;;;;;;;12.30;7.35;;;;;;;25.74;46.18;101703.50;5066039;28;20117;-81
2022/05/11 09:35:39;;;;;;;15.70;7.60;;;;;;;25.90;45.19;101693.25;5065788;28;20392;-84
2022/05/11 09:38:29;;;;;;;11.23;7.82;;;;;;;25.93;44.28;101699.13;5067665;28;20129;-82
2022/05/11 09:41:21;;;;;;;9.40;7.80;;;;;;;25.88;44.40;101692.66;5065968;28;20052;-84
2022/05/11 09:43:55;;;;;;;11.43;7.03;;;;;;;25.96;44.74;101697.84;5065875;28;20084;-84
2022/05/11 09:46:49;;;;;;;9.30;7.22;;;;;;;25.88;45.26;101679.06;5066649;28;20498;-81
2022/05/11 09:49:19;;;;;;;9.18;6.82;;;;;;;26.00;45.10;101685.50;5066269;28;20052;-84
2022/05/11 09:51:54;;;;;;;7.30;6.30;;;;;;;25.22;44.95;101542.13;5066994;28;20044;-84
2022/05/11 09:54:42;;;;;;;9.57;6.38;;;;;;;26.10;44.42;101683.19;5084808;28;20048;-83
2022/05/11 09:57:09;;;;;;;8.90;7.43;;;;;;;26.32;44.61;101691.06;5069144;28;20520;-83
2022/05/11 09:59:49;;;;;;;14.52;7.72;;;;;;;26.50;43.87;101693.91;5083992;28;20111;-84
2022/05/11 10:02:39;;;;;;;8.38;6.63;;;;;;;26.18;43.99;101641.28;5068111;28;20143;-83
2022/05/11 10:05:13;;;;;;;10.07;6.40;;;;;;;26.67;44.11;101694.28;5066705;28;20559;-83
2022/05/11 10:08:11;;;;;;;12.57;8.43;;;;;;;26.23;44.21;101609.66;5083966;28;20466;-82
2022/05/11 10:10:50;;;;;;;13.40;7.53;;;;;;;26.11;44.30;101559.66;5082505;28;20067;-83
2022/05/11 10:13:30;;;;;;;12.93;7.07;;;;;;;27.00;43.70;101693.28;5065236;28;20059;-82
2022/05/11 10:21:58;;;;;;;10.80;7.15;;;;;;;27.41;43.26;101692.81;5066593;28;20056;-82
2022/05/11 10:24:46;;;;;;;11.52;7.85;;;;;;;27.53;42.96;101673.84;5066166;28;20471;-83
2022/05/11 10:27:28;;;;;;;16.25;7.65;;;;;;;27.72;42.38;101680.19;5098007;28;20052;-82
2022/05/11 10:30:02;;;;;;;11.48;7.47;;;;;;;27.92;42.36;101683.56;5101790;28;20488;-83
2022/05/11 10:32:54;;;;;;;7.90;6.82;;;;;;;27.66;41.88;101607.41;5097952;28;20060;-82
2022/05/11 10:35:44;;;;;;;9.65;7.38;;;;;;;28.21;41.36;101672.97;5094169;28;20045;-84
2022/05/11 10:38:32;;;;;;;14.25;7.50;;;;;;;28.45;40.31;101670.34;5065985;28;20060;-84
2022/05/11 10:41:22;;;;;;;11.85;7.25;;;;;;;28.43;41.23;101647.91;5066796;28;20052;-84
2022/05/11 10:44:42;;;;;;;11.68;7.68;;;;;;;28.33;39.89;101621.16;5081830;28;20048;-84
2022/05/11 10:47:34;;;;;;;11.45;7.25;;;;;;;28.67;40.22;101666.09;5081071;28;20307;-82
2022/05/11 10:50:24;;;;;;;8.07;7.28;;;;;;;28.83;39.88;101666.50;5066034;28;20136;-82
2022/05/11 10:52:50;;;;;;;8.45;7.70;;;;;;;28.47;38.99;101564.47;5061006;28;20048;-84
2022/05/11 10:55:45;;;;;;;16.65;7.55;;;;;;;29.15;38.66;101665.22;5061557;28;20049;-83
2022/05/11 10:58:30;;;;;;;9.90;6.65;;;;;;;29.03;39.11;101622.47;5060292;28;20052;-83
2022/05/11 11:01:02;;;;;;;12.05;7.80;;;;;;;28.26;38.95;101512.03;5064374;28;20473;-83
2022/05/11 11:04:00;;;;;;;12.10;7.63;;;;;;;29.30;38.64;101651.09;5063838;28;20520;-82
2022/05/11 11:07:13;;;;;;;10.68;6.47;;;;;;;29.51;38.63;101648.81;5064136;28;20133;-83
2022/05/11 11:10:08;;;;;;;8.40;6.35;;;;;;;29.57;37.98;101643.25;5021766;28;20368;-83
2022/05/11 11:13:29;;;;;;;9.90;7.30;;;;;;;29.67;37.72;101634.47;5065331;28;20086;-84
2022/05/11 11:15:57;;;;;;;10.48;6.93;;;;;;;29.53;37.99;101595.53;5023159;28;20315;-83
2022/05/11 11:18:38;;;;;;;12.00;7.70;;;;;;;29.51;38.05;101594.94;5006120;28;20053;-83
2022/05/11 11:21:08;;;;;;;10.77;8.77;;;;;;;29.71;37.87;101615.66;5047186;28;20072;-83
2022/05/11 11:23:41;;;;;;;10.75;7.25;;;;;;;28.88;37.40;101453.47;5065310;28;20059;-84
2022/05/11 11:26:10;;;;;;;7.25;6.63;;;;;;;29.80;37.77;101592.31;5063683;28;20048;-83
2022/05/11 11:28:40;;;;;;;9.02;7.35;;;;;;;30.00;37.42;101625.63;5063737;28;20050;-83
2022/05/11 11:31:10;;;;;;;14.32;7.30;;;;;;;30.01;37.34;101615.50;5063249;28;20051;-83
2022/05/11 11:34:00;;;;;;;12.95;7.60;;;;;;;29.37;37.52;101503.28;5065505;28;20045;-83
2022/05/11 11:36:31;;;;;;;16.30;7.00;;;;;;;30.02;37.03;101578.81;5056209;28;20209;-83
2022/05/11 11:39:02;;;;;;;8.65;6.90;;;;;;;30.44;36.49;101612.28;5066846;28;20159;-83
2022/05/11 11:41:42;;;;;;;11.40;7.07;;;;;;;30.61;36.15;101617.81;5071760;28;20471;-84
2022/05/11 11:44:26;;;;;;;12.02;7.43;;;;;;;30.74;35.78;101616.66;5066536;28;20062;-82
2022/05/11 11:46:56;;;;;;;10.23;7.40;;;;;;;30.71;35.80;101587.03;5064713;28;20056;-82
2022/05/11 11:49:27;;;;;;;9.35;7.50;;;;;;;30.98;35.91;101614.66;5064789;28;20057;-83
2022/05/11 11:52:09;;;;;;;9.73;7.28;;;;;;;31.03;35.63;101584.56;5064180;28;20495;-83
2022/05/11 11:54:45;;;;;;;11.65;6.78;;;;;;;31.38;35.58;101604.56;5063189;28;20354;-84
2022/05/11 11:57:12;;;;;;;8.45;7.15;;;;;;;31.25;35.42;101546.25;5063861;28;20049;-83
2022/05/11 11:59:43;;;;;;;10.48;7.40;;;;;;;31.69;34.20;101595.72;5065042;28;20069;-84
2022/05/11 12:02:18;;;;;;;8.52;6.60;;;;;;;31.45;34.84;101569.59;5063360;28;20048;-83
2022/05/11 12:04:57;;;;;;;14.55;6.95;;;;;;;31.72;33.74;101597.94;5063359;28;20052;-84
2022/05/11 12:16:07;;;;;;;11.88;6.97;;;;;;;32.31;33.41;101588.28;5064720;28;20049;-83
2022/05/11 12:18:39;;;;;;;10.27;6.60;;;;;;;32.41;33.58;101587.56;5063994;28;20053;-82
2022/05/11 12:21:11;;;;;;;7.97;6.80;;;;;;;32.44;33.07;101565.03;5063360;28;20053;-83
2022/05/11 12:23:46;;;;;;;8.05;6.32;;;;;;;32.22;33.25;101557.69;5066429;28;20056;-83